createdAt,value
2023-04-22T07:09:29.483Z,99703.56
2023-04-22T07:11:59.039Z,99703.11
2023-04-22T07:14:30.843Z,99704.27
2023-04-22T07:16:59.656Z,99704.15
2023-04-22T07:19:27.734Z,99705.35
2023-04-22T07:21:56.013Z,99707.95
2023-04-22T07:24:24.286Z,99705.99
2023-04-22T07:26:52.561Z,99701.41
2023-04-22T07:29:20.941Z,99703.06
2023-04-22T07:31:49.080Z,99706.74
2023-04-22T07:34:18.437Z,99705.66
2023-04-22T07:36:46.584Z,99706.93
2023-04-22T07:39:14.651Z,99706.17
2023-04-22T07:41:42.744Z,99710.60
2023-04-22T07:44:13.089Z,99712.17
2023-04-22T07:46:41.331Z,99711.54
2023-04-22T07:49:09.600Z,99711.23
2023-04-22T07:51:37.983Z,99712.61
2023-04-22T07:54:06.363Z,99713.92
2023-04-22T07:56:35.170Z,99714.80
2023-04-22T07:59:03.949Z,99715.51
2023-04-22T08:01:32.219Z,99716.00
2023-04-22T08:04:00.482Z,99721.66
2023-04-22T08:06:28.908Z,99722.48
2023-04-22T08:08:56.991Z,99722.80
2023-04-22T08:11:25.138Z,99726.09
2023-04-22T08:13:53.161Z,99723.22
2023-04-22T08:16:21.322Z,99728.69
2023-04-22T08:18:49.639Z,99728.52
2023-04-22T08:21:17.831Z,99730.50
2023-04-22T08:23:46.503Z,99732.93
2023-04-22T08:26:16.334Z,99736.75
2023-04-22T08:28:44.500Z,99731.30
2023-04-22T08:31:13.182Z,99733.20
2023-04-22T08:33:41.862Z,99733.33
2023-04-22T08:36:11.286Z,99735.13
2023-04-22T08:38:39.636Z,99736.80
2023-04-22T08:41:07.679Z,99735.48
2023-04-22T08:43:35.882Z,99743.98
2023-04-22T08:46:04.106Z,99740.64
2023-04-22T08:48:33.039Z,99738.96
2023-04-22T08:51:01.233Z,99742.41
2023-04-22T08:53:29.619Z,99742.84
2023-04-22T08:55:57.884Z,99743.15
2023-04-22T08:58:26.188Z,99745.20
2023-04-22T09:00:54.849Z,99743.41
2023-04-22T09:03:23.398Z,99747.84
2023-04-22T09:05:52.638Z,99743.91
2023-04-22T09:08:21.099Z,99745.66
2023-04-22T09:10:49.159Z,99743.55
2023-04-22T09:13:17.548Z,99743.27
2023-04-22T09:15:46.401Z,99744.94
2023-04-22T09:18:17.583Z,99741.73
2023-04-22T09:20:47.394Z,99741.48
2023-04-22T09:23:16.188Z,99742.77
2023-04-22T09:25:45.005Z,99739.47
2023-04-22T09:28:17.163Z,99740.27
2023-04-22T09:30:46.234Z,99745.20
2023-04-22T09:33:14.272Z,99737.85
2023-04-22T09:35:43.297Z,99742.07
2023-04-22T09:38:12.299Z,99741.27
2023-04-22T09:40:44.412Z,99739.88
2023-04-22T09:43:12.883Z,99744.76
2023-04-22T09:45:44.053Z,99744.70
2023-04-22T09:48:13.829Z,99745.08
2023-04-22T09:50:49.749Z,99747.51
2023-04-22T09:53:19.294Z,99747.77
2023-04-22T09:55:49.691Z,99745.71
2023-04-22T09:58:19.084Z,99741.93
2023-04-22T10:00:51.889Z,99742.14
2023-04-22T10:03:20.511Z,99747.54
2023-04-22T10:05:48.793Z,99745.66
2023-04-22T10:08:17.229Z,99748.27
2023-04-22T10:10:45.916Z,99745.90
2023-04-22T10:13:13.931Z,99747.08
2023-04-22T10:15:52.715Z,99744.98
2023-04-22T10:18:25.890Z,99746.98
2023-04-22T10:20:54.548Z,99746.81
2023-04-22T10:23:23.165Z,99746.20
2023-04-22T10:25:54.660Z,99743.08
2023-04-22T10:28:24.197Z,99739.73
2023-04-22T10:30:52.384Z,99739.13
2023-04-22T10:33:34.904Z,99739.48
2023-04-22T10:36:14.950Z,99740.73
2023-04-22T10:38:55.303Z,99736.74
2023-04-22T10:41:30.539Z,99740.96
2023-04-22T10:44:00.346Z,99740.48
2023-04-22T10:46:38.045Z,99740.65
2023-04-22T10:49:13.788Z,99744.27
2023-04-22T10:51:46.569Z,99743.95
2023-04-22T10:54:32.096Z,99739.98
2023-04-22T10:57:11.494Z,99744.16
2023-04-22T10:59:45.915Z,99742.65
2023-04-22T11:02:14.920Z,99743.11
2023-04-22T11:04:43.305Z,99744.14
2023-04-22T11:07:22.769Z,99743.91
2023-04-22T11:09:52.366Z,99742.71
2023-04-22T11:12:35.897Z,99747.15
2023-04-22T11:15:07.158Z,99747.64
2023-04-22T11:17:36.328Z,99747.70
2023-04-22T11:20:05.356Z,99749.91
2023-04-22T11:22:44.239Z,99752.02
2023-04-22T11:25:12.354Z,99753.69
2023-04-22T11:27:43.425Z,99751.20
2023-04-22T11:30:13.678Z,99753.96
2023-04-22T11:32:47.648Z,99755.05
2023-04-22T11:35:19.446Z,99759.02
2023-04-22T11:37:51.861Z,99763.13
2023-04-22T11:40:30.959Z,99761.46
2023-04-22T11:43:02.370Z,99757.52
2023-04-22T11:45:31.323Z,99753.62
2023-04-22T11:48:01.929Z,99756.55
2023-04-22T11:50:33.006Z,99754.48
2023-04-22T11:53:02.676Z,99754.93
2023-04-22T11:55:35.073Z,99752.23
2023-04-22T11:58:26.696Z,99754.70
2023-04-22T12:00:56.401Z,99754.65
2023-04-22T12:03:26.461Z,99751.36
2023-04-22T12:05:58.847Z,99753.35
2023-04-22T12:08:31.606Z,99751.20
2023-04-22T12:11:05.899Z,99748.59
2023-04-22T12:13:38.470Z,99747.46
2023-04-22T12:16:12.660Z,99747.61
2023-04-22T12:18:43.391Z,99743.08
2023-04-22T12:21:12.794Z,99738.80
2023-04-22T12:24:05.149Z,99740.73
2023-04-22T12:26:34.119Z,99739.98
2023-04-22T12:29:02.283Z,99739.18
2023-04-22T12:31:30.612Z,99743.01
2023-04-22T12:34:00.473Z,99739.05
2023-04-22T12:36:32.553Z,99739.97
2023-04-22T12:39:00.933Z,99741.10
2023-04-22T12:41:29.060Z,99737.11
2023-04-22T12:43:57.173Z,99733.86
2023-04-22T12:46:25.465Z,99739.42
2023-04-22T12:48:53.717Z,99740.29
2023-04-22T12:51:22.614Z,99738.87
2023-04-22T12:53:50.786Z,99740.55
2023-04-22T12:56:18.900Z,99741.88
2023-04-22T12:58:47.844Z,99742.23
2023-04-22T13:01:15.977Z,99743.81
2023-04-22T13:03:44.513Z,99743.75
2023-04-22T13:06:12.881Z,99746.09
2023-04-22T13:08:41.072Z,99748.30
2023-04-22T13:11:09.345Z,99752.05
2023-04-22T13:13:37.428Z,99755.57
2023-04-22T13:16:06.006Z,99755.19
2023-04-22T13:18:34.262Z,99755.95
2023-04-22T13:21:02.395Z,99766.83
2023-04-22T13:23:31.115Z,99772.55
2023-04-22T13:25:59.289Z,99783.80
2023-04-22T13:28:28.107Z,99787.30
2023-04-22T13:30:56.353Z,99794.52
2023-04-22T13:33:24.617Z,99799.10
2023-04-22T13:35:52.766Z,99799.34
2023-04-22T13:38:21.289Z,99801.67
2023-04-22T13:40:49.387Z,99802.15
2023-04-22T13:43:18.129Z,99801.38
2023-04-22T13:45:48.338Z,99799.09
2023-04-22T13:48:16.498Z,99798.57
2023-04-22T13:50:44.805Z,99798.01
2023-04-22T13:53:13.974Z,99795.94
2023-04-22T13:55:43.416Z,99795.70
2023-04-22T13:58:11.690Z,99792.20
2023-04-22T14:00:39.869Z,99791.13
2023-04-22T14:03:08.308Z,99791.02
2023-04-22T14:05:37.016Z,99791.66
2023-04-22T14:08:05.151Z,99794.27
2023-04-22T14:10:33.326Z,99791.73
2023-04-22T14:13:01.662Z,99790.96
2023-04-22T14:15:29.967Z,99793.30
2023-04-22T14:17:58.037Z,99790.81
2023-04-22T14:20:26.255Z,99788.76
2023-04-22T14:22:54.367Z,99791.86
2023-04-22T14:25:22.442Z,99789.05
2023-04-22T14:27:50.911Z,99792.10
2023-04-22T14:30:20.425Z,99791.53
2023-04-22T14:32:49.469Z,99791.98
2023-04-22T14:35:18.212Z,99791.97
2023-04-22T14:37:46.671Z,99796.40
2023-04-22T14:40:15.250Z,99792.31
2023-04-22T14:42:43.914Z,99797.02
2023-04-22T14:45:14.729Z,99801.17
2023-04-22T14:47:43.673Z,99801.98
2023-04-22T14:50:11.853Z,99798.48
2023-04-22T14:52:41.220Z,99802.05
2023-04-22T14:55:21.940Z,99804.54
2023-04-22T14:57:56.777Z,99803.02
2023-04-22T15:00:26.143Z,99803.29
2023-04-22T15:02:54.858Z,99804.80
2023-04-22T15:05:23.732Z,99807.60
2023-04-22T15:07:51.886Z,99808.85
2023-04-22T15:10:20.243Z,99811.47
2023-04-22T15:12:48.372Z,99812.94
2023-04-22T15:15:18.158Z,99814.60
2023-04-22T15:17:46.727Z,99814.05
2023-04-22T15:20:15.566Z,99813.48
2023-04-22T15:22:43.865Z,99817.36
2023-04-22T15:25:11.970Z,99820.06
2023-04-22T15:27:40.265Z,99826.46
2023-04-22T15:30:08.932Z,99824.02
2023-04-22T15:32:39.376Z,99825.73
2023-04-22T15:35:08.222Z,99830.20
2023-04-22T15:37:37.169Z,99829.36
2023-04-22T15:40:07.055Z,99832.48
2023-04-22T15:42:35.285Z,99829.60
2023-04-22T15:45:04.154Z,99833.30
2023-04-22T15:47:33.368Z,99832.63
2023-04-22T15:50:09.052Z,99835.63
2023-04-22T15:52:38.084Z,99835.83
2023-04-22T15:55:07.871Z,99836.45
2023-04-22T15:57:37.072Z,99835.52
2023-04-22T16:00:12.948Z,99836.91
2023-04-22T16:02:45.091Z,99837.38
2023-04-22T16:05:14.809Z,99837.36
2023-04-22T16:07:43.493Z,99838.25
2023-04-22T16:10:12.194Z,99836.35
2023-04-22T16:12:42.094Z,99841.35
2023-04-22T16:15:10.718Z,99842.95
2023-04-22T16:17:38.790Z,99848.17
2023-04-22T16:20:08.672Z,99845.28
2023-04-22T16:22:37.297Z,99847.54
2023-04-22T16:25:07.124Z,99848.79
2023-04-22T16:27:35.757Z,99852.60
2023-04-22T16:30:04.459Z,99854.55
2023-04-22T16:32:33.023Z,99857.10
2023-04-22T16:35:01.590Z,99855.73
2023-04-22T16:37:31.115Z,99860.02
2023-04-22T16:39:59.336Z,99860.62
2023-04-22T16:42:27.870Z,99862.19
2023-04-22T16:44:56.149Z,99864.58
2023-04-22T16:47:24.630Z,99866.79
2023-04-22T16:49:52.796Z,99870.74
2023-04-22T16:52:20.911Z,99872.03
2023-04-22T16:54:51.689Z,99874.15
2023-04-22T16:57:20.069Z,99878.34
2023-04-22T16:59:48.239Z,99880.11
2023-04-22T17:02:16.356Z,99881.57
2023-04-22T17:04:44.586Z,99884.48
2023-04-22T17:07:12.809Z,99889.32
2023-04-22T17:09:41.582Z,99890.27
2023-04-22T17:12:10.141Z,99891.40
2023-04-22T17:14:38.619Z,99899.04
2023-04-22T17:17:06.894Z,99899.34
2023-04-22T17:19:36.607Z,99904.49
2023-04-22T17:22:04.876Z,99909.81
2023-04-22T17:24:33.348Z,99914.25
2023-04-22T17:27:01.946Z,99915.31
2023-04-22T17:29:30.241Z,99918.94
2023-04-22T17:31:58.298Z,99919.08
2023-04-22T17:34:27.036Z,99920.31
2023-04-22T17:36:55.251Z,99926.55
2023-04-22T17:39:23.398Z,99928.36
2023-04-22T17:41:51.508Z,99931.19
2023-04-22T17:44:19.695Z,99938.40
2023-04-22T17:46:48.025Z,99936.30
2023-04-22T17:49:16.139Z,99940.02
2023-04-22T17:51:44.172Z,99942.23
2023-04-22T17:54:12.496Z,99944.07
2023-04-22T17:56:41.054Z,99949.98
2023-04-22T17:59:11.489Z,99952.25
2023-04-22T18:01:39.653Z,99953.83
2023-04-22T18:04:08.085Z,99955.45
2023-04-22T18:06:37.129Z,99957.08
2023-04-22T18:09:05.913Z,99956.55
2023-04-22T18:11:34.537Z,99954.23
2023-04-22T18:14:02.719Z,99954.81
2023-04-22T18:16:31.224Z,99959.85
2023-04-22T18:19:02.356Z,99963.80
2023-04-22T18:21:31.592Z,99963.95
2023-04-22T18:24:00.004Z,99967.26
2023-04-22T18:26:28.570Z,99971.15
2023-04-22T18:28:56.731Z,99969.58
2023-04-22T18:31:24.888Z,99975.19
2023-04-22T18:33:53.177Z,99972.99
2023-04-22T18:36:21.550Z,99975.71
2023-04-22T18:38:49.730Z,99977.85
2023-04-22T18:41:18.206Z,99977.69
2023-04-22T18:43:48.472Z,99979.50
2023-04-22T18:46:16.630Z,99983.58
2023-04-22T18:48:44.878Z,99984.39
2023-04-22T18:51:13.676Z,99986.69
2023-04-22T18:53:41.641Z,99981.35
2023-04-22T18:56:09.919Z,99992.60
2023-04-22T18:58:38.197Z,99992.32
2023-04-22T19:01:07.345Z,99990.35
2023-04-22T19:03:36.086Z,99994.64
2023-04-22T19:06:05.138Z,99993.89
2023-04-22T19:08:33.892Z,99995.27
2023-04-22T19:11:02.040Z,99994.09
2023-04-22T19:13:30.510Z,99997.79
2023-04-22T19:15:58.901Z,99996.59
2023-04-22T19:18:27.189Z,99997.39
2023-04-22T19:20:55.471Z,99999.14
2023-04-22T19:23:23.810Z,100000.20
2023-04-22T19:25:52.008Z,99999.42
2023-04-22T19:28:20.259Z,100004.06
2023-04-22T19:30:48.550Z,99999.67
2023-04-22T19:33:16.934Z,100001.58
2023-04-22T19:35:45.758Z,100001.89
2023-04-22T19:38:19.083Z,100001.37
2023-04-22T19:40:47.692Z,100003.35
2023-04-22T19:43:17.161Z,100003.23
2023-04-22T19:45:46.386Z,100005.61
2023-04-22T19:48:15.077Z,100004.02
2023-04-22T19:50:43.344Z,100004.37
2023-04-22T19:53:12.039Z,100005.42
2023-04-22T19:55:40.621Z,100005.25
2023-04-22T19:58:08.669Z,100004.07
2023-04-22T20:00:37.391Z,100004.53
2023-04-22T20:03:07.190Z,100008.17
2023-04-22T20:05:37.249Z,100007.75
2023-04-22T20:08:05.406Z,100010.16
2023-04-22T20:10:33.950Z,100010.45
2023-04-22T20:13:04.078Z,100011.70
2023-04-22T20:15:34.313Z,100012.79
2023-04-22T20:18:02.958Z,100017.67
2023-04-22T20:20:31.299Z,100019.00
2023-04-22T20:23:01.490Z,100021.52
2023-04-22T20:25:30.966Z,100023.74
2023-04-22T20:27:59.168Z,100024.09
2023-04-22T20:30:27.555Z,100020.33
2023-04-22T20:32:56.356Z,100021.60
2023-04-22T20:35:25.741Z,100020.39
2023-04-22T20:37:54.119Z,100021.30
2023-04-22T20:40:24.618Z,100019.84
2023-04-22T20:42:53.128Z,100019.80
2023-04-22T20:45:21.132Z,100020.23
2023-04-22T20:47:49.370Z,100025.77
2023-04-22T20:50:17.635Z,100027.02
2023-04-22T20:52:47.590Z,100029.55
2023-04-22T20:55:17.030Z,100027.45
2023-04-22T20:57:45.446Z,100029.36
2023-04-22T21:00:14.222Z,100030.61
2023-04-22T21:02:43.273Z,100032.05
2023-04-22T21:05:12.254Z,100037.57
2023-04-22T21:07:41.594Z,100035.16
2023-04-22T21:10:10.729Z,100039.59
2023-04-22T21:12:39.573Z,100033.27
2023-04-22T21:15:08.336Z,100036.56
2023-04-22T21:17:36.639Z,100037.35
2023-04-22T21:20:06.377Z,100036.09
2023-04-22T21:22:34.789Z,100037.67
2023-04-22T21:25:02.930Z,100040.23
2023-04-22T21:27:31.713Z,100041.02
2023-04-22T21:29:59.789Z,100040.73
2023-04-22T21:32:29.562Z,100043.05
2023-04-22T21:34:57.752Z,100041.11
2023-04-22T21:37:26.154Z,100046.02
2023-04-22T21:39:54.737Z,100045.48
2023-04-22T21:42:22.943Z,100045.08
2023-04-22T21:44:51.396Z,100048.55
2023-04-22T21:47:19.458Z,100050.69
2023-04-22T21:49:47.668Z,100049.80
2023-04-22T21:52:16.415Z,100046.50
2023-04-22T21:54:44.683Z,100046.14
2023-04-22T21:57:13.318Z,100050.16
2023-04-22T21:59:41.640Z,100052.00
2023-04-22T22:02:09.732Z,100048.52
2023-04-22T22:04:39.017Z,100051.03
2023-04-22T22:07:07.825Z,100051.92
2023-04-22T22:09:36.500Z,100047.56
2023-04-22T22:12:04.834Z,100049.64
2023-04-22T22:14:33.992Z,100052.38
2023-04-22T22:17:02.257Z,100050.70
2023-04-22T22:19:31.987Z,100051.02
2023-04-22T22:22:00.069Z,100051.36
2023-04-22T22:24:28.272Z,100050.34
2023-04-22T22:26:58.022Z,100053.48
2023-04-22T22:29:26.196Z,100054.03
2023-04-22T22:31:54.389Z,100055.13
2023-04-22T22:34:22.530Z,100053.27
2023-04-22T22:36:50.719Z,100052.09
2023-04-22T22:39:18.820Z,100048.56
2023-04-22T22:41:47.472Z,100052.80
2023-04-22T22:44:15.728Z,100054.15
2023-04-22T22:46:43.827Z,100058.68
2023-04-22T22:49:12.106Z,100056.27
2023-04-22T22:51:40.690Z,100054.54
2023-04-22T22:54:09.073Z,100056.54
2023-04-22T22:56:37.251Z,100057.72
2023-04-22T22:59:05.353Z,100054.23
2023-04-22T23:01:33.492Z,100057.27
2023-04-22T23:04:01.845Z,100056.45
2023-04-22T23:06:32.085Z,100056.30
2023-04-22T23:09:00.380Z,100056.73
2023-04-22T23:11:28.661Z,100057.09
2023-04-22T23:13:57.926Z,100057.91
2023-04-22T23:16:27.274Z,100059.41
2023-04-22T23:18:55.410Z,100059.67
2023-04-22T23:21:23.719Z,100064.39
2023-04-22T23:23:51.899Z,100061.98
2023-04-22T23:26:20.570Z,100063.46
2023-04-22T23:28:49.240Z,100062.71
2023-04-22T23:31:17.372Z,100067.23
2023-04-22T23:33:45.691Z,100068.64
2023-04-22T23:36:13.805Z,100066.13
2023-04-22T23:38:42.010Z,100069.70
2023-04-22T23:41:10.323Z,100072.91
2023-04-22T23:43:38.490Z,100073.84
2023-04-22T23:46:06.842Z,100074.59
2023-04-22T23:48:34.910Z,100074.48
2023-04-22T23:51:03.264Z,100078.52
2023-04-22T23:53:31.458Z,100079.33
2023-04-22T23:56:00.060Z,100079.94
2023-04-22T23:58:28.741Z,100079.09
